Time;durP1;ratioP1;P1;durP2;ratioP2;P2;SDS_P1;SDS_P2;PMS_P1;PMS_P2;Temp;Humidity;BMP_temperature;BMP_pressure;BME280_temperature;BME280_humidity;BME280_pressure;Samples;Min_cycle;Max_cycle;Signal;HPM_P1;HPM_P2
2022/01/24 00:00:00;;;;;;;17.07;12.27;;;5.80;99.90;;;;;;4956270;28;20208;-94
2022/01/24 00:02:30;;;;;;;15.73;11.87;;;5.80;99.90;;;;;;4956326;28;20658;-94
2022/01/24 00:04:55;;;;;;;17.83;12.40;;;5.80;99.90;;;;;;4956418;28;20268;-94
2022/01/24 00:07:23;;;;;;;17.93;13.47;;;5.80;99.90;;;;;;4949322;28;20201;-94
2022/01/24 00:09:52;;;;;;;19.33;13.37;;;5.80;99.90;;;;;;4936913;29;20217;-95
2022/01/24 00:12:30;;;;;;;18.80;12.97;;;5.80;99.90;;;;;;4948716;29;20192;-95
2022/01/24 00:17:38;;;;;;;16.60;12.70;;;5.80;99.90;;;;;;4957395;28;20177;-94
2022/01/24 00:28:20;;;;;;;17.67;12.30;;;5.90;99.90;;;;;;4938130;29;20213;-95
2022/01/24 00:30:47;;;;;;;16.80;12.97;;;5.80;99.90;;;;;;4937237;29;20189;-95
2022/01/24 00:33:12;;;;;;;19.93;13.20;;;5.80;99.90;;;;;;4937177;29;20631;-94
2022/01/24 00:35:38;;;;;;;21.87;12.77;;;5.80;99.90;;;;;;4936675;29;20329;-93
2022/01/24 00:38:04;;;;;;;21.60;14.27;;;5.80;99.90;;;;;;4936851;29;20185;-94
2022/01/24 00:40:37;;;;;;;20.93;13.07;;;5.80;99.90;;;;;;4936845;29;20495;-94
2022/01/24 00:43:09;;;;;;;20.40;13.57;;;5.80;99.90;;;;;;4936641;29;20188;-94
2022/01/24 00:45:53;;;;;;;18.10;13.43;;;5.70;99.90;;;;;;4936649;29;20606;-95
2022/01/24 00:54:01;;;;;;;19.83;13.63;;;5.70;99.90;;;;;;4937917;29;20169;-93
2022/01/24 00:56:27;;;;;;;20.63;13.57;;;5.70;99.90;;;;;;4936251;29;20178;-94
2022/01/24 00:58:52;;;;;;;19.73;13.67;;;5.70;99.90;;;;;;4936678;29;20190;-94
2022/01/24 01:01:18;;;;;;;17.70;13.43;;;5.70;99.90;;;;;;4936917;29;20536;-94
2022/01/24 01:03:44;;;;;;;18.00;12.63;;;5.70;99.90;;;;;;4936561;29;20188;-95
2022/01/24 01:06:11;;;;;;;20.53;13.73;;;5.70;99.90;;;;;;4936533;29;20186;-93
2022/01/24 01:19:39;;;;;;;21.87;14.00;;;5.70;99.90;;;;;;4956854;29;20221;-94
2022/01/24 01:22:06;;;;;;;21.43;12.83;;;5.70;99.90;;;;;;4955555;28;20240;-94
2022/01/24 01:24:37;;;;;;;18.00;13.27;;;5.70;99.90;;;;;;4955632;28;20179;-95
2022/01/24 01:27:18;;;;;;;17.27;11.83;;;5.70;99.90;;;;;;4955120;28;20236;-94
2022/01/24 01:29:54;;;;;;;19.60;14.23;;;5.60;99.90;;;;;;4955494;28;20590;-95
2022/01/24 01:37:49;;;;;;;17.03;12.87;;;5.70;99.90;;;;;;4941111;29;20217;-94
2022/01/24 01:56:25;;;;;;;16.07;12.73;;;5.70;99.90;;;;;;4959557;28;20313;-93
2022/01/24 01:58:51;;;;;;;18.63;13.03;;;5.60;99.90;;;;;;4958282;28;20267;-93
2022/01/24 02:01:17;;;;;;;16.23;12.60;;;5.60;99.90;;;;;;4958337;28;20182;-93
2022/01/24 02:03:42;;;;;;;21.37;12.97;;;5.60;99.90;;;;;;4958558;28;20181;-93
2022/01/24 02:06:08;;;;;;;18.13;13.47;;;5.60;99.90;;;;;;4958705;28;20272;-94
2022/01/24 02:08:34;;;;;;;24.63;13.70;;;5.60;99.90;;;;;;4958242;28;20184;-93
2022/01/24 02:11:00;;;;;;;20.17;14.13;;;5.60;99.90;;;;;;4958277;28;20193;-93
2022/01/24 02:13:31;;;;;;;19.97;13.87;;;5.60;99.90;;;;;;4957863;28;20268;-94
2022/01/24 02:18:36;;;;;;;20.93;14.73;;;5.60;99.90;;;;;;4959125;28;20164;-93
2022/01/24 02:21:25;;;;;;;21.37;14.47;;;5.60;99.90;;;;;;4958241;28;20181;-93
2022/01/24 02:23:52;;;;;;;23.07;15.10;;;5.60;99.90;;;;;;4957830;28;20276;-93
2022/01/24 02:26:21;;;;;;;20.00;13.87;;;5.60;99.90;;;;;;4939798;28;20182;-93
2022/01/24 02:34:03;;;;;;;25.13;15.57;;;5.60;99.90;;;;;;4939717;29;20570;-94
2022/01/24 02:36:29;;;;;;;23.27;15.27;;;5.60;99.90;;;;;;4938548;29;20198;-93
2022/01/24 02:39:09;;;;;;;20.20;14.57;;;5.60;99.90;;;;;;4938640;29;20194;-94
2022/01/24 02:49:48;;;;;;;27.60;16.30;;;5.60;99.90;;;;;;4959073;29;20791;-93
2022/01/24 02:52:15;;;;;;;26.37;15.90;;;5.60;99.90;;;;;;4957570;28;20212;-93
2022/01/24 02:54:41;;;;;;;28.10;16.03;;;5.60;99.90;;;;;;4957454;28;20173;-93
2022/01/24 02:57:08;;;;;;;27.80;16.80;;;5.60;99.90;;;;;;4957063;28;20177;-92
2022/01/24 02:59:35;;;;;;;25.67;15.80;;;5.60;99.90;;;;;;4957464;28;20181;-93
2022/01/24 03:02:01;;;;;;;23.63;16.43;;;5.60;99.90;;;;;;4957440;28;20260;-93
2022/01/24 03:04:27;;;;;;;23.13;16.10;;;5.60;99.90;;;;;;4957509;28;20177;-92
2022/01/24 03:06:53;;;;;;;22.40;14.33;;;5.50;99.90;;;;;;4957065;28;20634;-94
2022/01/24 03:09:22;;;;;;;21.80;13.63;;;5.50;99.90;;;;;;4956866;28;20626;-93
2022/01/24 03:14:21;;;;;;;21.77;15.27;;;5.50;99.90;;;;;;4958533;28;20181;-94
2022/01/24 03:16:49;;;;;;;29.37;15.77;;;5.50;99.90;;;;;;4957032;28;20188;-95
2022/01/24 03:19:15;;;;;;;26.80;16.87;;;5.50;99.90;;;;;;4957325;28;20268;-94
2022/01/24 03:21:42;;;;;;;27.27;17.57;;;5.50;99.90;;;;;;5350356;23;20239;-92
2022/01/24 03:24:08;;;;;;;29.47;16.63;;;5.50;99.90;;;;;;4916471;29;20195;-92
2022/01/24 03:26:34;;;;;;;33.67;17.90;;;5.50;99.90;;;;;;4915999;29;20621;-91
2022/01/24 03:29:00;;;;;;;31.63;17.50;;;5.50;99.90;;;;;;4908999;29;20218;-91
2022/01/24 03:31:25;;;;;;;31.30;18.63;;;5.60;99.90;;;;;;4899443;29;20194;-91
2022/01/24 03:33:51;;;;;;;35.03;19.13;;;5.60;99.90;;;;;;4899801;29;20190;-90
2022/01/24 03:36:17;;;;;;;29.63;17.37;;;5.50;99.90;;;;;;4899494;29;20186;-90
2022/01/24 03:38:43;;;;;;;31.53;18.03;;;5.50;99.90;;;;;;4899643;29;20187;-90
2022/01/24 03:41:08;;;;;;;28.20;17.67;;;5.50;99.90;;;;;;4899460;29;20191;-91
2022/01/24 03:43:34;;;;;;;29.17;17.03;;;5.60;99.90;;;;;;4899308;29;20239;-91
2022/01/24 03:48:42;;;;;;;30.33;17.50;;;5.50;99.90;;;;;;4900652;29;20230;-91
2022/01/24 03:51:09;;;;;;;28.13;17.60;;;5.50;99.90;;;;;;4899357;29;20210;-91
2022/01/24 03:53:35;;;;;;;30.43;17.43;;;5.50;99.90;;;;;;4899646;29;20176;-91
2022/01/24 03:56:01;;;;;;;31.30;17.90;;;5.50;99.90;;;;;;4899641;29;20175;-92
2022/01/24 03:58:27;;;;;;;31.67;17.87;;;5.50;99.90;;;;;;4915728;29;20194;-91
2022/01/24 04:00:55;;;;;;;28.23;17.70;;;5.40;99.90;;;;;;4918484;29;20189;-90
2022/01/24 04:03:21;;;;;;;29.30;17.37;;;5.50;99.90;;;;;;4918093;29;20178;-90
2022/01/24 04:05:46;;;;;;;37.47;19.20;;;5.50;99.90;;;;;;4918042;29;20186;-91
2022/01/24 04:08:12;;;;;;;32.67;19.47;;;5.50;99.90;;;;;;4918009;29;20273;-90
2022/01/24 04:10:47;;;;;;;36.80;19.67;;;5.50;99.90;;;;;;4918070;29;20217;-91
2022/01/24 04:13:34;;;;;;;35.93;19.30;;;5.50;99.90;;;;;;4917484;29;20233;-91
2022/01/24 04:21:28;;;;;;;35.53;20.00;;;5.40;99.90;;;;;;4919038;29;20230;-91
2022/01/24 04:24:14;;;;;;;33.20;19.33;;;5.50;99.90;;;;;;4917924;29;20178;-91
2022/01/24 04:26:40;;;;;;;30.60;19.50;;;5.50;99.90;;;;;;4917316;29;20190;-90
2022/01/24 04:29:07;;;;;;;32.47;19.63;;;5.50;99.90;;;;;;4917650;29;20717;-91
2022/01/24 04:31:33;;;;;;;33.73;19.43;;;5.50;99.90;;;;;;4917758;29;20185;-91
2022/01/24 04:34:00;;;;;;;34.63;20.73;;;5.50;99.90;;;;;;4917817;29;20531;-91
2022/01/24 04:36:27;;;;;;;36.17;20.43;;;5.50;99.90;;;;;;4919081;29;20170;-91
2022/01/24 04:38:53;;;;;;;34.73;20.13;;;5.40;99.90;;;;;;4917753;29;20182;-92
2022/01/24 04:41:31;;;;;;;31.97;20.10;;;5.50;99.90;;;;;;4917600;29;20518;-92
2022/01/24 04:44:28;;;;;;;32.77;19.90;;;5.50;99.90;;;;;;4917775;29;20220;-92
2022/01/24 04:54:44;;;;;;;39.33;21.77;;;5.40;99.90;;;;;;4919085;29;20190;-93
2022/01/24 04:57:17;;;;;;;42.37;22.97;;;5.40;99.90;;;;;;4917202;29;20507;-91
2022/01/24 04:59:47;;;;;;;41.97;24.43;;;5.50;99.90;;;;;;4917563;29;20197;-92
2022/01/24 05:02:14;;;;;;;39.67;21.20;;;5.50;99.90;;;;;;4917654;29;20537;-92
2022/01/24 05:04:40;;;;;;;40.10;22.30;;;5.50;99.90;;;;;;4917945;29;20178;-92
2022/01/24 05:07:06;;;;;;;40.97;23.13;;;5.50;99.90;;;;;;4918346;29;20179;-92
2022/01/24 05:09:41;;;;;;;42.17;21.17;;;5.50;99.90;;;;;;4919510;29;20215;-92
2022/01/24 05:12:27;;;;;;;34.07;21.47;;;5.50;99.90;;;;;;4914695;29;20179;-92
2022/01/24 05:21:31;;;;;;;38.00;20.53;;;5.40;99.90;;;;;;4922628;29;20311;-91
2022/01/24 05:25:53;;;;;;;36.57;21.03;;;5.50;99.90;;;;;;4922400;29;20230;-91
2022/01/24 05:28:19;;;;;;;43.87;22.53;;;5.50;99.90;;;;;;4920578;29;20622;-91
2022/01/24 05:30:46;;;;;;;35.90;21.00;;;5.50;99.90;;;;;;4920669;29;20258;-91
2022/01/24 05:33:12;;;;;;;31.90;21.17;;;5.40;99.90;;;;;;4920225;29;20187;-91
2022/01/24 05:35:38;;;;;;;33.53;20.77;;;5.40;99.90;;;;;;4920768;29;20193;-91
2022/01/24 05:38:04;;;;;;;32.70;20.07;;;5.50;99.90;;;;;;4921717;29;20178;-91
2022/01/24 05:40:30;;;;;;;32.27;20.67;;;5.50;99.90;;;;;;4920591;29;20182;-92
2022/01/24 05:42:56;;;;;;;32.83;21.07;;;5.40;99.90;;;;;;4921356;29;20185;-92
2022/01/24 05:45:22;;;;;;;33.70;20.67;;;5.50;99.90;;;;;;4920641;29;20178;-92
2022/01/24 05:47:48;;;;;;;29.93;20.40;;;5.50;99.90;;;;;;4920356;29;20191;-92
2022/01/24 05:50:14;;;;;;;30.53;20.33;;;5.50;99.90;;;;;;4920382;29;20673;-92
2022/01/24 05:52:39;;;;;;;31.33;19.77;;;5.50;99.90;;;;;;4920468;29;20269;-92
2022/01/24 05:55:06;;;;;;;30.00;19.27;;;5.50;99.90;;;;;;4920306;29;20204;-92
2022/01/24 05:57:31;;;;;;;32.70;18.97;;;5.40;99.90;;;;;;4920121;29;20626;-92
2022/01/24 05:59:57;;;;;;;29.53;19.30;;;5.50;99.90;;;;;;4920353;29;20277;-92
2022/01/24 06:02:23;;;;;;;29.83;18.43;;;5.50;99.90;;;;;;4920219;29;20182;-91
2022/01/24 06:04:49;;;;;;;28.83;18.17;;;5.40;99.90;;;;;;4920330;29;20195;-91
2022/01/24 06:07:15;;;;;;;28.10;18.63;;;5.40;99.90;;;;;;4920718;29;20219;-91
2022/01/24 06:09:41;;;;;;;28.37;18.97;;;5.40;99.90;;;;;;4920615;29;20214;-91
2022/01/24 06:12:07;;;;;;;28.10;18.83;;;5.50;99.90;;;;;;4920357;29;20187;-91
2022/01/24 06:14:33;;;;;;;27.03;18.13;;;5.40;99.90;;;;;;4935556;29;20538;-93
2022/01/24 06:16:58;;;;;;;27.67;18.70;;;5.40;99.90;;;;;;4919334;29;20202;-92
2022/01/24 06:19:24;;;;;;;24.80;17.13;;;5.40;99.90;;;;;;4919685;29;20218;-92
2022/01/24 06:21:50;;;;;;;28.90;18.53;;;5.40;99.90;;;;;;4918605;29;20240;-91
2022/01/24 06:24:16;;;;;;;25.37;17.50;;;5.40;99.90;;;;;;4919918;29;20241;-91
2022/01/24 06:26:43;;;;;;;28.57;18.43;;;5.40;99.90;;;;;;4916748;29;20191;-91
2022/01/24 06:29:10;;;;;;;29.57;17.50;;;5.40;99.90;;;;;;4900603;29;20542;-92
2022/01/24 06:31:35;;;;;;;26.00;17.57;;;5.40;99.90;;;;;;4900920;29;20695;-92
2022/01/24 06:34:01;;;;;;;24.57;17.53;;;5.40;99.90;;;;;;4914791;29;20277;-92
2022/01/24 06:36:27;;;;;;;25.20;17.20;;;5.40;99.90;;;;;;4900959;29;20195;-91
2022/01/24 06:38:52;;;;;;;25.40;18.13;;;5.40;99.90;;;;;;4902681;29;20198;-91
2022/01/24 06:41:23;;;;;;;28.50;19.17;;;5.40;99.90;;;;;;4914090;29;20182;-91
2022/01/24 06:43:49;;;;;;;23.93;16.93;;;5.40;99.90;;;;;;4918514;29;20293;-91
2022/01/24 06:46:14;;;;;;;30.33;18.40;;;5.40;99.90;;;;;;4914894;29;20234;-89
2022/01/24 06:48:40;;;;;;;27.10;18.40;;;5.40;99.90;;;;;;4919130;29;20285;-90
2022/01/24 06:51:10;;;;;;;29.47;18.63;;;5.40;99.90;;;;;;4919227;29;20214;-90
2022/01/24 06:53:37;;;;;;;32.30;19.23;;;5.40;99.90;;;;;;4919284;29;20190;-91
2022/01/24 06:56:04;;;;;;;30.97;19.83;;;5.40;99.90;;;;;;4919224;29;20175;-91
2022/01/24 06:58:30;;;;;;;29.07;19.67;;;5.40;99.90;;;;;;4918015;29;20190;-92
2022/01/24 07:00:56;;;;;;;26.63;18.03;;;5.40;99.90;;;;;;4917829;29;20630;-91
2022/01/24 07:03:21;;;;;;;30.47;19.43;;;5.30;99.90;;;;;;4918722;29;20194;-91
2022/01/24 07:05:47;;;;;;;30.00;18.90;;;5.40;99.90;;;;;;4918960;29;20178;-90
2022/01/24 07:08:13;;;;;;;25.50;17.90;;;5.30;99.90;;;;;;4919190;29;20171;-91
2022/01/24 07:10:38;;;;;;;29.93;17.60;;;5.40;99.90;;;;;;4918731;29;20259;-90
2022/01/24 07:13:04;;;;;;;31.30;18.73;;;5.40;99.90;;;;;;4918986;29;20210;-91
2022/01/24 07:15:34;;;;;;;25.87;17.63;;;5.40;99.90;;;;;;4919342;29;20226;-91
2022/01/24 07:18:16;;;;;;;27.33;18.27;;;5.40;99.90;;;;;;4910529;29;20187;-90
2022/01/24 07:20:42;;;;;;;26.57;17.20;;;5.40;99.90;;;;;;4918629;29;20601;-91
2022/01/24 07:23:08;;;;;;;26.33;18.07;;;5.40;99.90;;;;;;4918760;29;20629;-91
2022/01/24 07:25:34;;;;;;;30.07;17.70;;;5.30;99.90;;;;;;4918094;29;20179;-91
2022/01/24 07:28:00;;;;;;;26.37;18.40;;;5.40;99.90;;;;;;4917650;29;20197;-91
2022/01/24 07:30:25;;;;;;;29.53;18.80;;;5.40;99.90;;;;;;4918790;29;20228;-91
2022/01/24 07:32:51;;;;;;;30.30;18.53;;;5.40;99.90;;;;;;4917576;29;20680;-91
2022/01/24 07:35:17;;;;;;;32.80;19.63;;;5.40;99.90;;;;;;4918374;29;20186;-91
2022/01/24 07:37:42;;;;;;;29.60;19.80;;;5.40;99.90;;;;;;4918248;29;20182;-91
2022/01/24 07:40:10;;;;;;;26.30;17.90;;;5.40;99.90;;;;;;4918943;29;20474;-91
2022/01/24 07:43:19;;;;;;;25.00;17.60;;;5.40;99.90;;;;;;4918595;29;20194;-92
2022/01/24 07:45:26;;;;;;;26.40;17.50;;;5.40;99.90;;;;;;4915695;29;20191;-91
2022/01/24 07:47:52;;;;;;;25.20;17.23;;;5.40;99.90;;;;;;4917834;29;20174;-91
2022/01/24 07:50:22;;;;;;;27.00;17.83;;;5.40;99.90;;;;;;4918180;29;20218;-92
2022/01/24 07:52:49;;;;;;;29.87;18.97;;;5.40;99.90;;;;;;4917923;29;20307;-91
2022/01/24 07:55:15;;;;;;;28.07;18.80;;;5.40;99.90;;;;;;4918198;29;20184;-91
2022/01/24 07:57:40;;;;;;;27.63;18.97;;;5.40;99.90;;;;;;4917812;29;20191;-91
2022/01/24 08:00:09;;;;;;;29.87;18.97;;;5.30;99.90;;;;;;4913777;29;20187;-91
2022/01/24 08:02:35;;;;;;;26.87;18.60;;;5.40;99.90;;;;;;4899114;29;20185;-90
2022/01/24 08:05:01;;;;;;;33.27;20.03;;;5.40;99.90;;;;;;4898575;29;20183;-91
2022/01/24 08:07:27;;;;;;;32.30;18.63;;;5.40;99.90;;;;;;4898827;29;20230;-92
2022/01/24 08:09:52;;;;;;;26.17;18.90;;;5.40;99.90;;;;;;4898953;29;20223;-90
2022/01/24 08:12:18;;;;;;;29.23;19.27;;;5.30;99.90;;;;;;4898900;29;20278;-90
2022/01/24 08:14:44;;;;;;;30.40;19.73;;;5.30;99.90;;;;;;4905619;29;20197;-90
2022/01/24 08:17:10;;;;;;;36.00;20.60;;;5.30;99.90;;;;;;4915229;29;20576;-91
2022/01/24 08:19:35;;;;;;;35.60;20.50;;;5.30;99.90;;;;;;4916356;29;20259;-91
2022/01/24 08:22:01;;;;;;;30.63;19.17;;;5.30;99.90;;;;;;4917394;29;20230;-90
2022/01/24 08:24:27;;;;;;;32.87;19.37;;;5.30;99.90;;;;;;4917901;29;20186;-91
2022/01/24 08:26:54;;;;;;;31.73;18.63;;;5.40;99.90;;;;;;4917576;29;20197;-91
2022/01/24 08:29:20;;;;;;;25.30;17.77;;;5.30;99.90;;;;;;4916796;29;20249;-90
2022/01/24 08:31:46;;;;;;;30.43;18.77;;;5.40;99.90;;;;;;4916188;29;20640;-92
2022/01/24 08:34:12;;;;;;;30.63;19.77;;;5.40;99.90;;;;;;4917386;29;20190;-91
2022/01/24 08:36:37;;;;;;;30.63;19.60;;;5.40;99.90;;;;;;4917550;29;20201;-91
2022/01/24 08:39:08;;;;;;;30.37;20.10;;;5.40;99.90;;;;;;4916619;29;20200;-90
2022/01/24 08:41:56;;;;;;;27.97;18.93;;;5.50;99.90;;;;;;4917451;29;20242;-90
2022/01/24 08:45:43;;;;;;;28.93;18.80;;;5.40;99.90;;;;;;4919237;29;20625;-90
2022/01/24 08:47:17;;;;;;;31.13;18.90;;;5.50;99.90;;;;;;4922292;29;20183;-91
2022/01/24 08:49:43;;;;;;;23.50;18.17;;;5.50;99.90;;;;;;4921364;29;20218;-91
2022/01/24 08:52:09;;;;;;;30.47;20.30;;;5.50;99.90;;;;;;4921409;29;20183;-90
2022/01/24 08:54:35;;;;;;;27.50;19.80;;;5.50;99.90;;;;;;4921345;29;20242;-90
2022/01/24 08:57:01;;;;;;;28.27;19.73;;;5.50;99.90;;;;;;4921514;29;20191;-91
2022/01/24 08:59:27;;;;;;;32.20;19.27;;;5.50;99.90;;;;;;4921373;29;20179;-91
2022/01/24 09:01:52;;;;;;;28.37;18.67;;;5.60;99.90;;;;;;4920725;29;20282;-92
2022/01/24 09:04:18;;;;;;;25.23;17.63;;;5.60;99.90;;;;;;4915233;29;20215;-91
2022/01/24 09:06:44;;;;;;;27.03;19.23;;;5.50;99.90;;;;;;4921197;29;20194;-90
2022/01/24 09:09:09;;;;;;;25.83;18.47;;;5.60;99.90;;;;;;4921068;29;20347;-92
2022/01/24 09:11:36;;;;;;;27.30;18.57;;;5.60;99.90;;;;;;4921093;29;20205;-92
2022/01/24 09:14:04;;;;;;;27.30;18.53;;;5.60;99.90;;;;;;4920736;29;20197;-92
2022/01/24 09:16:29;;;;;;;27.27;18.77;;;5.60;99.90;;;;;;4921022;29;20531;-91
2022/01/24 09:18:55;;;;;;;28.13;18.63;;;5.60;99.90;;;;;;4921291;29;20171;-92
2022/01/24 09:21:22;;;;;;;27.30;18.80;;;5.60;99.90;;;;;;4920808;29;20266;-90
2022/01/24 09:23:48;;;;;;;34.37;19.60;;;5.60;99.90;;;;;;4920940;29;20685;-90
2022/01/24 09:26:14;;;;;;;28.07;19.23;;;5.60;99.90;;;;;;4920706;29;20219;-89
2022/01/24 09:28:40;;;;;;;27.53;18.23;;;5.60;99.90;;;;;;4920451;29;20190;-91
2022/01/24 09:31:06;;;;;;;31.70;19.70;;;5.60;99.90;;;;;;4921223;29;20190;-92
2022/01/24 09:33:33;;;;;;;27.47;18.27;;;5.60;99.90;;;;;;4920812;29;20178;-92
2022/01/24 09:36:00;;;;;;;32.80;20.30;;;5.60;99.90;;;;;;4920932;29;20618;-92
2022/01/24 09:38:32;;;;;;;30.33;18.63;;;5.60;99.90;;;;;;4920926;29;20171;-89
2022/01/24 09:41:01;;;;;;;29.73;18.67;;;5.60;99.90;;;;;;4921793;29;20181;-90
2022/01/24 09:43:27;;;;;;;29.23;18.57;;;5.60;99.90;;;;;;4919645;29;20186;-90
2022/01/24 09:45:53;;;;;;;30.60;18.50;;;5.60;99.90;;;;;;4919750;29;20209;-90
2022/01/24 09:48:19;;;;;;;27.53;17.63;;;5.70;99.90;;;;;;4920316;29;20197;-91
2022/01/24 09:50:50;;;;;;;30.40;18.97;;;5.70;99.90;;;;;;4920016;29;20305;-92
2022/01/24 09:53:17;;;;;;;27.00;18.27;;;5.70;99.90;;;;;;4920299;29;20178;-93
2022/01/24 09:55:43;;;;;;;29.40;18.77;;;5.70;99.90;;;;;;4919831;29;20189;-92
2022/01/24 09:58:09;;;;;;;29.70;19.83;;;5.70;99.90;;;;;;4919887;29;20290;-91
2022/01/24 10:00:39;;;;;;;26.50;18.77;;;5.80;99.90;;;;;;4920112;29;20194;-91
2022/01/24 10:03:08;;;;;;;28.27;19.43;;;5.80;99.90;;;;;;4919632;29;20202;-90
2022/01/24 10:05:40;;;;;;;29.07;18.90;;;5.80;99.90;;;;;;4920254;29;20208;-91
2022/01/24 10:08:25;;;;;;;28.60;18.70;;;5.80;99.90;;;;;;4919916;29;20178;-91
2022/01/24 10:10:54;;;;;;;31.57;20.07;;;5.80;99.90;;;;;;4919934;29;20351;-91
2022/01/24 10:16:24;;;;;;;30.80;19.33;;;5.70;99.90;;;;;;4921267;29;20186;-91
2022/01/24 10:19:09;;;;;;;32.73;20.80;;;5.80;99.90;;;;;;4919676;29;20209;-91
2022/01/24 10:21:51;;;;;;;29.83;19.60;;;5.80;99.90;;;;;;4920114;29;20665;-91
2022/01/24 10:24:26;;;;;;;36.87;21.00;;;5.80;99.90;;;;;;4919888;29;20530;-91
2022/01/24 10:27:17;;;;;;;35.70;21.63;;;5.80;99.90;;;;;;4919408;29;20186;-91
2022/01/24 10:29:47;;;;;;;34.90;21.40;;;5.80;99.90;;;;;;4918872;29;20549;-91
2022/01/24 10:32:32;;;;;;;41.23;23.63;;;5.80;99.90;;;;;;4920666;29;20167;-91
2022/01/24 10:35:36;;;;;;;37.67;22.10;;;5.90;99.90;;;;;;4920682;29;20181;-90
2022/01/24 10:38:21;;;;;;;39.73;22.63;;;5.90;99.90;;;;;;4919588;29;20500;-91
2022/01/24 10:43:23;;;;;;;38.00;22.97;;;5.90;99.90;;;;;;4920479;29;20186;-91
2022/01/24 10:45:50;;;;;;;35.30;20.93;;;5.90;99.90;;;;;;4919324;29;20185;-91
2022/01/24 10:48:24;;;;;;;36.03;20.90;;;5.90;99.90;;;;;;4919807;29;20187;-90
2022/01/24 10:51:18;;;;;;;33.10;19.70;;;5.90;99.90;;;;;;4919812;29;20213;-89
2022/01/24 10:53:50;;;;;;;33.17;19.73;;;6.00;99.90;;;;;;4920798;29;20179;-90
2022/01/24 10:56:40;;;;;;;37.93;20.47;;;6.00;99.90;;;;;;4919188;29;20626;-90
2022/01/24 10:59:11;;;;;;;32.13;20.00;;;6.00;99.90;;;;;;4899940;29;20182;-91
2022/01/24 11:01:41;;;;;;;27.90;18.37;;;6.00;99.90;;;;;;4910248;29;20190;-89
2022/01/24 11:04:15;;;;;;;31.10;19.00;;;6.00;99.90;;;;;;4919339;29;20281;-93
2022/01/24 11:06:51;;;;;;;32.30;19.33;;;6.00;99.90;;;;;;4918602;29;20198;-95
2022/01/24 11:09:35;;;;;;;31.97;18.07;;;6.00;99.90;;;;;;4918873;29;20218;-94
2022/01/24 11:12:12;;;;;;;33.13;18.77;;;6.00;99.90;;;;;;4919146;29;20182;-91
2022/01/24 11:14:41;;;;;;;34.20;18.27;;;6.00;99.90;;;;;;4918745;29;20232;-92
2022/01/24 11:17:09;;;;;;;31.17;17.70;;;6.00;99.90;;;;;;4918834;29;20194;-92
2022/01/24 11:19:42;;;;;;;32.20;18.53;;;6.00;99.90;;;;;;4918879;29;20175;-93
2022/01/24 11:22:19;;;;;;;30.27;17.47;;;6.00;99.90;;;;;;4918510;29;20238;-93
2022/01/24 11:24:57;;;;;;;32.80;18.27;;;6.10;99.90;;;;;;4918635;29;20174;-93
2022/01/24 11:27:23;;;;;;;28.30;17.37;;;6.00;99.90;;;;;;4918565;29;20198;-92
2022/01/24 11:29:58;;;;;;;30.73;18.50;;;6.10;99.90;;;;;;4918335;29;20286;-92
2022/01/24 11:32:42;;;;;;;32.47;18.40;;;6.00;99.90;;;;;;4918674;29;20178;-92
2022/01/24 11:35:08;;;;;;;32.27;18.53;;;6.10;99.90;;;;;;4917938;29;20705;-94
2022/01/24 11:37:42;;;;;;;33.63;19.00;;;6.10;99.90;;;;;;4918525;29;20273;-93
2022/01/24 11:40:20;;;;;;;30.43;17.30;;;6.10;99.90;;;;;;4918646;29;20662;-93
2022/01/24 11:42:47;;;;;;;30.97;17.57;;;6.00;99.90;;;;;;4918299;29;20640;-91
2022/01/24 11:45:17;;;;;;;32.57;18.60;;;6.10;99.90;;;;;;4918768;29;20192;-93
2022/01/24 11:47:46;;;;;;;29.03;17.53;;;6.00;99.90;;;;;;4918519;29;20253;-92
2022/01/24 11:50:24;;;;;;;30.33;17.90;;;6.10;99.90;;;;;;4918262;29;20217;-91
2022/01/24 11:52:51;;;;;;;30.27;17.30;;;6.10;99.90;;;;;;4918505;29;20250;-94
2022/01/24 11:55:31;;;;;;;36.83;18.53;;;6.10;99.90;;;;;;4917944;29;20622;-93
2022/01/24 11:58:07;;;;;;;32.57;17.93;;;6.10;99.90;;;;;;4918121;29;20197;-90
2022/01/24 12:00:40;;;;;;;28.43;17.40;;;6.10;99.90;;;;;;4933106;29;20178;-91
2022/01/24 12:03:23;;;;;;;26.67;16.30;;;6.10;99.90;;;;;;4917997;29;20496;-90
2022/01/24 12:05:53;;;;;;;31.23;18.90;;;6.00;99.90;;;;;;4913449;29;20243;-89
2022/01/24 12:08:35;;;;;;;30.00;17.80;;;6.10;99.90;;;;;;4917613;29;20186;-90
2022/01/24 12:11:24;;;;;;;32.67;18.70;;;6.00;99.90;;;;;;4917767;29;20214;-89
2022/01/24 12:14:12;;;;;;;32.00;17.37;;;6.00;99.90;;;;;;4917365;29;20194;-89
2022/01/24 12:16:43;;;;;;;30.93;18.10;;;6.00;99.90;;;;;;4917565;29;20217;-89
2022/01/24 12:19:11;;;;;;;31.50;18.07;;;6.00;99.90;;;;;;4918048;29;20258;-90
2022/01/24 12:21:38;;;;;;;32.07;18.53;;;6.00;99.90;;;;;;4916653;29;20234;-90
2022/01/24 12:24:07;;;;;;;33.37;19.00;;;6.00;99.90;;;;;;4918887;29;20182;-90
2022/01/24 12:26:45;;;;;;;33.20;18.23;;;6.00;99.90;;;;;;4917426;29;20174;-90
2022/01/24 12:29:20;;;;;;;34.53;18.70;;;6.00;99.90;;;;;;4917303;29;20770;-92
2022/01/24 12:31:52;;;;;;;30.40;17.17;;;6.00;99.90;;;;;;4898603;29;20193;-92
2022/01/24 12:34:27;;;;;;;30.90;18.40;;;6.00;99.90;;;;;;4915823;29;20525;-92
2022/01/24 12:37:04;;;;;;;35.57;18.93;;;6.00;99.90;;;;;;4917297;29;20532;-91
2022/01/24 12:39:45;;;;;;;32.90;19.17;;;6.00;99.90;;;;;;4917656;29;20190;-92
2022/01/24 12:42:20;;;;;;;31.10;18.30;;;6.00;99.90;;;;;;4916872;29;20230;-92
2022/01/24 12:47:15;;;;;;;34.80;18.97;;;6.10;99.90;;;;;;4900032;29;20201;-91
2022/01/24 12:49:42;;;;;;;33.63;18.53;;;6.10;99.90;;;;;;4912685;29;20214;-92
2022/01/24 12:52:11;;;;;;;33.47;18.30;;;6.00;99.90;;;;;;4917466;29;20186;-93
2022/01/24 12:54:43;;;;;;;33.40;18.13;;;6.00;99.90;;;;;;4917555;29;20218;-92
2022/01/24 12:57:14;;;;;;;33.63;19.30;;;6.00;99.90;;;;;;4899654;29;20190;-93
2022/01/24 12:59:50;;;;;;;33.73;19.23;;;6.00;99.90;;;;;;4898338;29;20187;-90
2022/01/24 13:02:26;;;;;;;29.67;17.80;;;6.00;99.90;;;;;;4898649;29;20195;-92
2022/01/24 13:05:03;;;;;;;33.53;19.13;;;6.00;99.90;;;;;;4903592;29;20196;-91
2022/01/24 13:07:31;;;;;;;33.83;19.13;;;6.00;99.90;;;;;;4916617;29;20190;-92
2022/01/24 13:10:08;;;;;;;34.83;19.30;;;6.00;99.90;;;;;;4917013;29;20541;-93
2022/01/24 13:12:36;;;;;;;36.23;19.77;;;6.00;99.90;;;;;;4913245;29;20219;-90
2022/01/24 13:15:04;;;;;;;34.33;19.37;;;6.00;99.90;;;;;;4898596;29;20274;-90
2022/01/24 13:23:10;;;;;;;28.17;16.20;;;5.90;99.90;;;;;;4900210;29;20191;-90
2022/01/24 13:25:38;;;;;;;26.87;15.57;;;5.90;99.90;;;;;;4898606;29;20176;-90
2022/01/24 13:28:08;;;;;;;32.27;16.07;;;5.90;99.90;;;;;;4898611;29;20186;-90
2022/01/24 13:30:43;;;;;;;24.00;14.73;;;5.90;99.90;;;;;;4900293;29;20211;-90
2022/01/24 13:33:20;;;;;;;22.33;13.00;;;5.90;99.90;;;;;;4902038;29;20179;-89
2022/01/24 13:35:47;;;;;;;19.50;11.93;;;5.90;99.90;;;;;;4902970;29;20297;-90
2022/01/24 13:38:20;;;;;;;17.77;10.40;;;5.90;99.90;;;;;;4917307;29;20175;-89
2022/01/24 13:40:57;;;;;;;16.93;9.20;;;5.90;99.90;;;;;;4902689;29;20259;-90
2022/01/24 13:43:34;;;;;;;13.73;9.07;;;5.90;99.90;;;;;;4920140;29;20273;-90
2022/01/24 13:46:01;;;;;;;13.33;7.20;;;5.90;99.90;;;;;;4919539;29;20193;-90
2022/01/24 13:48:27;;;;;;;12.83;8.17;;;5.90;99.90;;;;;;4920546;29;20174;-90
2022/01/24 13:50:56;;;;;;;8.93;5.97;;;5.80;99.90;;;;;;4921118;29;20515;-90
2022/01/24 13:53:33;;;;;;;8.03;5.70;;;5.80;99.90;;;;;;4919700;29;20194;-90
2022/01/24 13:56:01;;;;;;;9.07;5.53;;;5.80;99.90;;;;;;4919639;29;20665;-91
2022/01/24 13:58:27;;;;;;;7.83;5.50;;;5.80;99.90;;;;;;4920001;29;20254;-90
2022/01/24 14:00:58;;;;;;;7.60;5.47;;;5.80;99.90;;;;;;4919415;29;20300;-91
2022/01/24 14:03:23;;;;;;;10.17;5.60;;;5.80;99.90;;;;;;4919471;29;20622;-89
2022/01/24 14:06:09;;;;;;;7.67;5.40;;;5.80;99.90;;;;;;4920528;29;20193;-89
2022/01/24 14:08:36;;;;;;;6.97;4.93;;;5.80;99.90;;;;;;4919403;29;20194;-89
2022/01/24 14:11:14;;;;;;;9.87;5.93;;;5.80;99.90;;;;;;4920101;29;20218;-91
2022/01/24 14:13:46;;;;;;;6.90;5.40;;;5.80;99.90;;;;;;4920224;29;20185;-91
2022/01/24 14:16:32;;;;;;;7.10;5.13;;;5.80;99.90;;;;;;4915796;29;20195;-90
2022/01/24 14:19:03;;;;;;;7.53;5.03;;;5.80;99.90;;;;;;4900962;29;20251;-90
2022/01/24 14:21:29;;;;;;;7.77;5.60;;;5.80;99.90;;;;;;4900859;29;20611;-90
2022/01/24 14:23:55;;;;;;;7.60;5.67;;;5.80;99.90;;;;;;4918343;29;20695;-90
2022/01/24 14:26:27;;;;;;;7.83;5.57;;;5.80;99.90;;;;;;4919745;29;20281;-91
2022/01/24 14:29:10;;;;;;;8.13;5.53;;;5.80;99.90;;;;;;4919552;29;20190;-90
2022/01/24 14:31:36;;;;;;;8.00;5.37;;;5.80;99.90;;;;;;4918835;29;20191;-90
2022/01/24 14:34:05;;;;;;;5.60;3.93;;;5.70;99.90;;;;;;4919168;29;20213;-91
2022/01/24 14:36:32;;;;;;;5.90;4.67;;;5.70;99.90;;;;;;4919433;29;20286;-90